Terminal Aerodrome Forecast
Issued by NWS Sterling, VA

Current Version | Previous Version | Graphics & Text | Print | Product List | Glossary On
Versions: 1 2 3 4 5 6 7 8 9 10 11 12 13 14 15 16 17 18 19 20 21
000
FTUS41 KLWX 101502 AAC
TAFIAD
TAF AMD
KIAD 101502Z 1015/1118 29011G18KT P6SM FEW050 SCT120
     FM102300 31006KT P6SM FEW150
     FM110500 VRB03KT P6SM SCT120
     FM111600 15006KT P6SM OVC090=

USA.gov is the U.S. government's official web portal to all federal, state and local government web resources and services.